Time;durP1;ratioP1;P1;durP2;ratioP2;P2;SDS_P1;SDS_P2;PMS_P1;PMS_P2;Temp;Humidity;BMP_temperature;BMP_pressure;BME280_temperature;BME280_humidity;BME280_pressure;Samples;Min_cycle;Max_cycle;Signal;HPM_P1;HPM_P2
2021/01/04 00:02:20;;;;;;;5.37;4.93;;;2.00;99.90;;;;;;5135268;27;20196;-88
2021/01/04 00:05:09;;;;;;;4.73;4.23;;;2.00;99.90;;;;;;5135384;27;20210;-88
2021/01/04 00:08:00;;;;;;;5.13;4.63;;;2.00;99.90;;;;;;5135020;27;20204;-88
2021/01/04 00:10:36;;;;;;;4.83;4.43;;;2.10;99.90;;;;;;5134764;27;20194;-90
2021/01/04 00:13:14;;;;;;;5.43;5.03;;;2.10;99.90;;;;;;5134878;27;20193;-87
2021/01/04 00:15:45;;;;;;;5.17;4.67;;;2.00;99.90;;;;;;5134929;27;20215;-87
2021/01/04 00:18:36;;;;;;;4.80;4.40;;;2.10;99.90;;;;;;5135047;27;20624;-88
2021/01/04 00:21:11;;;;;;;4.83;4.43;;;2.00;99.90;;;;;;5135084;27;20202;-88
2021/01/04 00:23:46;;;;;;;5.10;4.70;;;2.00;99.90;;;;;;5135307;27;20636;-89
2021/01/04 00:26:18;;;;;;;4.80;4.40;;;2.00;99.90;;;;;;5134562;27;20193;-88
2021/01/04 00:28:46;;;;;;;4.83;4.43;;;2.10;99.90;;;;;;5134904;27;20193;-89
2021/01/04 00:31:16;;;;;;;5.37;4.93;;;2.10;99.90;;;;;;5136471;27;20236;-90
2021/01/04 00:33:47;;;;;;;4.77;4.30;;;2.10;99.90;;;;;;5137617;27;20300;-92
2021/01/04 00:36:19;;;;;;;4.43;4.03;;;2.00;99.90;;;;;;5135476;27;20196;-91
2021/01/04 00:39:20;;;;;;;4.93;4.53;;;2.00;99.90;;;;;;5137795;27;20648;-91
2021/01/04 00:41:59;;;;;;;4.70;4.30;;;2.00;99.90;;;;;;5137982;27;20208;-91
2021/01/04 00:44:34;;;;;;;4.53;4.20;;;2.00;99.90;;;;;;5135884;27;20648;-91
2021/01/04 00:47:10;;;;;;;4.80;4.40;;;2.00;99.90;;;;;;5135350;27;20197;-92
2021/01/04 00:49:39;;;;;;;4.83;4.47;;;2.00;99.90;;;;;;5135766;27;20197;-88
2021/01/04 00:52:22;;;;;;;4.63;4.20;;;2.00;99.90;;;;;;5134357;27;20356;-89
2021/01/04 00:55:02;;;;;;;4.47;4.13;;;2.00;99.90;;;;;;5134419;27;20288;-90
2021/01/04 00:57:59;;;;;;;4.43;4.13;;;2.10;99.90;;;;;;5134123;27;20221;-88
2021/01/04 01:00:28;;;;;;;4.63;4.23;;;2.10;99.90;;;;;;5133627;27;20663;-88
2021/01/04 01:03:15;;;;;;;4.97;4.57;;;2.00;99.90;;;;;;5133996;27;20211;-89
2021/01/04 01:05:49;;;;;;;4.50;4.10;;;2.00;99.90;;;;;;5134169;27;20284;-90
2021/01/04 01:08:22;;;;;;;4.43;4.03;;;2.10;99.90;;;;;;5133821;27;20238;-88
2021/01/04 01:10:52;;;;;;;4.27;3.87;;;2.00;99.90;;;;;;5134091;27;20228;-90
2021/01/04 01:13:43;;;;;;;4.20;3.87;;;2.00;99.90;;;;;;5133798;27;20299;-87
2021/01/04 01:16:50;;;;;;;4.50;4.10;;;2.10;99.90;;;;;;5134013;27;20203;-88
2021/01/04 01:19:25;;;;;;;3.93;3.67;;;2.00;99.90;;;;;;5111090;27;20224;-87
2021/01/04 01:21:52;;;;;;;4.47;4.17;;;2.10;99.90;;;;;;5134178;27;20203;-91
2021/01/04 01:24:18;;;;;;;4.20;3.90;;;2.00;99.90;;;;;;5133951;27;20687;-92
2021/01/04 01:27:23;;;;;;;4.47;4.07;;;2.00;99.90;;;;;;5133738;27;20201;-90
2021/01/04 01:30:11;;;;;;;4.43;4.13;;;2.00;99.90;;;;;;5134117;27;20193;-90
2021/01/04 01:33:13;;;;;;;4.60;4.20;;;2.10;99.90;;;;;;5134521;27;20303;-90
2021/01/04 01:35:58;;;;;;;4.20;3.80;;;2.00;99.90;;;;;;5133931;27;20283;-88
2021/01/04 01:38:48;;;;;;;4.20;3.90;;;2.10;99.90;;;;;;5133174;27;20241;-88
2021/01/04 01:41:56;;;;;;;4.20;3.80;;;2.00;99.90;;;;;;5133607;27;20334;-88
2021/01/04 01:44:28;;;;;;;4.73;4.33;;;2.00;99.90;;;;;;5132901;27;20724;-88
2021/01/04 01:47:01;;;;;;;3.97;3.67;;;2.00;99.90;;;;;;5133493;27;20707;-89
2021/01/04 01:49:41;;;;;;;4.10;3.73;;;2.00;99.90;;;;;;5133290;27;20194;-88
2021/01/04 01:52:23;;;;;;;4.43;4.13;;;2.00;99.90;;;;;;5132760;27;20746;-86
2021/01/04 01:55:02;;;;;;;4.07;3.67;;;2.00;99.90;;;;;;5133036;27;20200;-88
2021/01/04 01:57:50;;;;;;;4.50;4.10;;;2.00;99.90;;;;;;5132613;27;20327;-86
2021/01/04 02:00:22;;;;;;;3.93;3.63;;;2.00;99.90;;;;;;5132261;27;20200;-87
2021/01/04 02:02:57;;;;;;;4.50;4.20;;;2.00;99.90;;;;;;5118337;27;20676;-85
2021/01/04 02:05:31;;;;;;;3.93;3.63;;;2.00;99.90;;;;;;5111415;28;20192;-84
2021/01/04 02:08:04;;;;;;;4.13;3.83;;;2.00;99.90;;;;;;5111381;28;20285;-85
2021/01/04 02:10:33;;;;;;;3.97;3.67;;;2.00;99.90;;;;;;5112083;28;20736;-88
2021/01/04 02:13:08;;;;;;;3.90;3.60;;;2.00;99.90;;;;;;5111186;28;20320;-89
2021/01/04 02:15:42;;;;;;;3.63;3.43;;;2.00;99.90;;;;;;5112461;28;20197;-92
2021/01/04 02:18:27;;;;;;;3.60;3.30;;;2.10;99.90;;;;;;5112149;28;20190;-91
2021/01/04 02:21:23;;;;;;;3.63;3.33;;;2.10;99.90;;;;;;5112177;28;20214;-90
2021/01/04 02:24:08;;;;;;;4.50;4.10;;;2.10;99.90;;;;;;5084739;28;20210;-87
2021/01/04 02:26:36;;;;;;;3.90;3.60;;;2.10;99.90;;;;;;5111832;28;20250;-87
2021/01/04 02:29:05;;;;;;;3.50;3.30;;;2.10;99.90;;;;;;5111783;28;20356;-89
2021/01/04 02:31:34;;;;;;;3.90;3.60;;;2.10;99.90;;;;;;5111836;28;20230;-88
2021/01/04 02:34:01;;;;;;;3.90;3.60;;;2.10;99.90;;;;;;5111700;28;20210;-88
2021/01/04 02:36:32;;;;;;;4.07;3.77;;;2.10;99.90;;;;;;5111813;28;20232;-88
2021/01/04 02:39:07;;;;;;;4.00;3.70;;;2.10;99.90;;;;;;5111655;28;20637;-92
2021/01/04 02:42:02;;;;;;;3.47;3.27;;;2.10;99.90;;;;;;5110140;28;20194;-84
2021/01/04 02:44:29;;;;;;;3.33;3.13;;;2.10;99.90;;;;;;5109636;28;20220;-83
2021/01/04 02:47:17;;;;;;;3.90;3.60;;;2.10;99.90;;;;;;5110804;28;20230;-88
2021/01/04 02:49:55;;;;;;;3.67;3.37;;;2.10;99.90;;;;;;5098301;28;20619;-89
2021/01/04 02:52:41;;;;;;;3.50;3.20;;;2.10;99.90;;;;;;5111315;28;20213;-87
2021/01/04 02:55:14;;;;;;;3.73;3.43;;;2.10;99.90;;;;;;5111055;28;20186;-88
2021/01/04 02:57:51;;;;;;;3.60;3.30;;;2.00;99.90;;;;;;5111084;28;20236;-89
2021/01/04 03:00:21;;;;;;;2.83;2.63;;;2.10;99.90;;;;;;5110944;28;20200;-90
2021/01/04 03:02:55;;;;;;;3.50;3.30;;;2.10;99.90;;;;;;5111599;28;20201;-90
2021/01/04 03:05:23;;;;;;;3.77;3.47;;;2.10;99.90;;;;;;5111111;28;20198;-91
2021/01/04 03:07:51;;;;;;;3.83;3.53;;;2.10;99.90;;;;;;5111486;28;20202;-90
2021/01/04 03:10:26;;;;;;;3.20;3.00;;;2.00;99.90;;;;;;5111350;28;20300;-88
2021/01/04 03:13:09;;;;;;;3.90;3.60;;;2.00;99.90;;;;;;5111449;28;20231;-88
2021/01/04 03:15:52;;;;;;;4.13;3.73;;;2.10;99.90;;;;;;5111852;28;20199;-88
2021/01/04 03:18:24;;;;;;;3.57;3.37;;;2.10;99.90;;;;;;5111552;28;20251;-88
2021/01/04 03:20:51;;;;;;;3.50;3.30;;;2.10;99.90;;;;;;5111832;28;20243;-88
2021/01/04 03:23:18;;;;;;;3.50;3.20;;;2.10;99.90;;;;;;5111205;28;20206;-89
2021/01/04 03:25:49;;;;;;;3.50;3.30;;;2.10;99.90;;;;;;5115400;28;20285;-87
2021/01/04 03:28:22;;;;;;;4.00;3.70;;;2.10;99.90;;;;;;5114931;28;20641;-88
2021/01/04 03:30:50;;;;;;;4.10;3.70;;;2.10;99.90;;;;;;5115180;28;20281;-87
2021/01/04 03:33:16;;;;;;;3.67;3.40;;;2.10;99.90;;;;;;5114708;27;20251;-87
2021/01/04 03:35:43;;;;;;;4.77;3.10;;;2.10;99.90;;;;;;5115097;28;20297;-87
2021/01/04 03:38:10;;;;;;;3.60;3.30;;;2.10;99.90;;;;;;5115028;28;20525;-87
2021/01/04 03:40:36;;;;;;;3.63;3.33;;;2.10;99.90;;;;;;5115015;28;20224;-90
2021/01/04 03:43:03;;;;;;;3.37;3.17;;;2.10;99.90;;;;;;5115505;28;20208;-90
2021/01/04 03:45:30;;;;;;;3.43;3.13;;;2.10;99.90;;;;;;5115286;28;20206;-89
2021/01/04 03:47:56;;;;;;;3.67;3.37;;;2.10;99.90;;;;;;5115356;28;20300;-88
2021/01/04 03:50:23;;;;;;;3.60;3.30;;;2.10;99.90;;;;;;5114921;28;20202;-90
2021/01/04 03:52:49;;;;;;;3.63;3.43;;;2.10;99.90;;;;;;5115851;28;20282;-90
2021/01/04 03:55:17;;;;;;;3.50;3.30;;;2.10;99.90;;;;;;5115239;28;20212;-90
2021/01/04 03:57:43;;;;;;;3.73;3.40;;;2.10;99.90;;;;;;5114761;28;20768;-83
2021/01/04 04:00:12;;;;;;;3.60;3.30;;;2.10;99.90;;;;;;5113355;28;20213;-84
2021/01/04 04:02:39;;;;;;;3.57;3.27;;;2.10;99.90;;;;;;5113248;27;20216;-83
2021/01/04 04:05:07;;;;;;;3.87;3.43;;;2.10;99.90;;;;;;5113876;28;20221;-84
2021/01/04 04:07:34;;;;;;;4.13;3.73;;;2.10;99.90;;;;;;5114781;27;20656;-84
2021/01/04 04:10:00;;;;;;;3.83;3.53;;;2.10;99.90;;;;;;5133932;27;20817;-85
2021/01/04 04:12:27;;;;;;;4.00;3.70;;;2.10;99.90;;;;;;5119187;27;20299;-86
2021/01/04 04:14:53;;;;;;;3.73;3.43;;;2.00;99.90;;;;;;5130458;27;20194;-86
2021/01/04 04:17:20;;;;;;;3.70;3.40;;;2.10;99.90;;;;;;5132021;27;20747;-85
2021/01/04 04:19:48;;;;;;;3.70;3.37;;;2.10;99.90;;;;;;5128575;27;20211;-83
2021/01/04 04:22:14;;;;;;;3.97;3.57;;;2.10;99.90;;;;;;5128210;27;20697;-85
2021/01/04 04:24:41;;;;;;;3.63;3.33;;;2.10;99.90;;;;;;5129045;27;20675;-85
2021/01/04 04:27:08;;;;;;;3.80;3.50;;;2.10;99.90;;;;;;5128981;27;20212;-85
2021/01/04 04:29:35;;;;;;;4.10;3.80;;;2.10;99.90;;;;;;5128344;27;20206;-84
2021/01/04 04:32:01;;;;;;;3.23;3.03;;;2.10;99.90;;;;;;5129125;27;20225;-86
2021/01/04 04:34:28;;;;;;;15.73;14.20;;;2.10;99.90;;;;;;5119846;27;20637;-85
2021/01/04 04:36:55;;;;;;;10.87;9.97;;;2.10;99.90;;;;;;5116937;27;20613;-86
2021/01/04 04:39:21;;;;;;;4.10;3.80;;;2.10;99.90;;;;;;5119526;27;20240;-82
2021/01/04 04:41:50;;;;;;;3.70;3.40;;;2.20;99.90;;;;;;5128583;27;20209;-82
2021/01/04 04:44:24;;;;;;;3.47;3.17;;;2.20;99.90;;;;;;5128445;27;20608;-84
2021/01/04 04:47:02;;;;;;;3.67;3.37;;;2.20;99.90;;;;;;5128807;27;20217;-84
2021/01/04 04:49:52;;;;;;;3.47;3.27;;;2.20;99.90;;;;;;5128079;27;20284;-83
2021/01/04 04:52:37;;;;;;;3.60;2.97;;;2.20;99.90;;;;;;5127972;27;20230;-84
2021/01/04 04:55:14;;;;;;;3.17;2.97;;;2.20;99.90;;;;;;5128534;27;20330;-84
2021/01/04 04:58:11;;;;;;;3.70;3.47;;;2.10;99.90;;;;;;5128047;27;20221;-85
2021/01/04 05:01:05;;;;;;;3.20;3.00;;;2.10;99.90;;;;;;5100237;27;20664;-85
2021/01/04 05:03:51;;;;;;;4.77;3.00;;;2.10;99.90;;;;;;5127066;27;20201;-84
2021/01/04 05:06:39;;;;;;;3.60;3.10;;;2.10;99.90;;;;;;5131769;27;20220;-83
2021/01/04 05:09:32;;;;;;;3.67;3.40;;;2.10;99.90;;;;;;5126676;27;20192;-84
2021/01/04 05:12:08;;;;;;;3.60;3.30;;;2.10;99.90;;;;;;5104385;28;20259;-85
2021/01/04 05:14:39;;;;;;;3.90;3.47;;;2.10;99.90;;;;;;5122394;27;20558;-86
2021/01/04 05:17:24;;;;;;;3.50;3.30;;;2.10;99.90;;;;;;5121961;27;20193;-85
2021/01/04 05:20:13;;;;;;;3.77;3.20;;;2.10;99.90;;;;;;5117263;27;20280;-85
2021/01/04 05:23:30;;;;;;;4.93;4.00;;;2.10;99.90;;;;;;5121940;27;20224;-86
2021/01/04 05:26:20;;;;;;;3.63;3.20;;;2.10;99.90;;;;;;5078004;28;20274;-86
2021/01/04 05:29:09;;;;;;;4.63;3.50;;;2.10;99.90;;;;;;5080051;28;20275;-86
2021/01/04 05:31:52;;;;;;;4.03;3.20;;;2.10;99.90;;;;;;5109708;27;20217;-86
2021/01/04 05:34:23;;;;;;;4.63;3.60;;;2.10;99.90;;;;;;5129462;27;20190;-86
2021/01/04 05:37:34;;;;;;;3.63;3.27;;;2.10;99.90;;;;;;5119033;27;20226;-86
2021/01/04 05:40:35;;;;;;;3.37;3.07;;;2.00;99.90;;;;;;5114626;27;20199;-86
2021/01/04 05:43:14;;;;;;;3.10;2.90;;;2.00;99.90;;;;;;5126210;27;20193;-86
2021/01/04 05:45:51;;;;;;;3.50;3.13;;;2.10;99.90;;;;;;5120756;27;20197;-86
2021/01/04 05:48:42;;;;;;;3.93;3.30;;;2.00;99.90;;;;;;5122071;27;20189;-85
2021/01/04 05:51:15;;;;;;;3.60;3.30;;;2.10;99.90;;;;;;5111228;28;20285;-86
2021/01/04 05:53:44;;;;;;;3.80;3.50;;;2.00;99.90;;;;;;5111558;28;20194;-87
2021/01/04 05:56:11;;;;;;;3.77;3.47;;;2.00;99.90;;;;;;5110760;28;20230;-86
2021/01/04 05:58:38;;;;;;;3.97;3.40;;;2.00;99.90;;;;;;5111106;27;20316;-86
2021/01/04 06:01:10;;;;;;;4.10;3.67;;;2.00;99.90;;;;;;5111334;28;20239;-86
2021/01/04 06:03:36;;;;;;;3.80;3.50;;;2.10;99.90;;;;;;5110994;28;20268;-85
2021/01/04 06:06:10;;;;;;;4.93;3.77;;;2.10;99.90;;;;;;5110814;28;20202;-85
2021/01/04 06:08:37;;;;;;;4.27;3.90;;;2.00;99.90;;;;;;5111158;28;20191;-86
2021/01/04 06:11:08;;;;;;;5.10;4.40;;;2.10;99.90;;;;;;5111230;28;20194;-87
2021/01/04 06:13:41;;;;;;;4.10;3.80;;;2.00;99.90;;;;;;5110991;28;20577;-86
2021/01/04 06:16:09;;;;;;;3.60;3.40;;;2.00;99.90;;;;;;5110633;28;20190;-87
2021/01/04 06:18:43;;;;;;;3.90;3.60;;;2.00;99.90;;;;;;5110752;28;20198;-86
2021/01/04 06:21:21;;;;;;;21.43;19.13;;;2.00;99.90;;;;;;5112558;27;20281;-83
2021/01/04 06:23:48;;;;;;;32.60;29.50;;;2.10;99.90;;;;;;5124752;27;20242;-84
2021/01/04 06:26:19;;;;;;;4.07;3.77;;;2.10;99.90;;;;;;5113903;27;20224;-85
2021/01/04 06:28:51;;;;;;;4.47;3.30;;;2.00;99.90;;;;;;5127656;27;20623;-86
2021/01/04 06:31:35;;;;;;;3.67;3.37;;;2.10;99.90;;;;;;5121609;27;20251;-85
2021/01/04 06:34:05;;;;;;;3.33;3.00;;;2.00;99.90;;;;;;5119687;27;20272;-85
2021/01/04 06:36:36;;;;;;;4.50;3.17;;;2.00;99.90;;;;;;5119745;27;20722;-85
2021/01/04 06:39:11;;;;;;;3.70;3.40;;;2.00;99.90;;;;;;5110037;28;20563;-85
2021/01/04 06:41:38;;;;;;;3.63;3.43;;;2.00;99.90;;;;;;5109987;28;20201;-86
2021/01/04 06:44:12;;;;;;;3.87;3.67;;;2.00;99.90;;;;;;5109885;28;20743;-86
2021/01/04 06:47:00;;;;;;;3.93;3.40;;;2.00;99.90;;;;;;5110445;28;20223;-86
2021/01/04 06:49:31;;;;;;;4.00;3.60;;;2.00;99.90;;;;;;5124096;27;20194;-84
2021/01/04 06:52:36;;;;;;;3.67;3.37;;;2.00;99.90;;;;;;5118125;27;20211;-85
2021/01/04 06:55:17;;;;;;;3.70;3.40;;;1.90;99.90;;;;;;5109724;28;20285;-85
2021/01/04 06:58:16;;;;;;;3.70;3.50;;;2.00;99.90;;;;;;5113883;27;20561;-86
2021/01/04 07:01:04;;;;;;;4.13;3.73;;;1.90;99.90;;;;;;5124204;27;20198;-88
2021/01/04 07:04:00;;;;;;;3.87;3.53;;;1.90;99.90;;;;;;5115219;27;20204;-88
2021/01/04 07:07:03;;;;;;;4.20;3.77;;;1.90;99.90;;;;;;5113553;28;20662;-87
2021/01/04 07:10:01;;;;;;;5.23;3.60;;;1.90;99.90;;;;;;5112120;27;20202;-89
2021/01/04 07:12:43;;;;;;;3.87;3.57;;;1.90;99.90;;;;;;5113479;27;20236;-88
2021/01/04 07:15:19;;;;;;;3.93;3.63;;;1.90;99.90;;;;;;5128939;27;20200;-88
2021/01/04 07:18:16;;;;;;;3.80;3.50;;;1.90;99.90;;;;;;5110710;28;20955;-87
2021/01/04 07:21:07;;;;;;;3.90;3.60;;;1.90;99.90;;;;;;5111089;28;20197;-87
2021/01/04 07:23:49;;;;;;;4.20;3.90;;;1.90;99.90;;;;;;5113494;28;20200;-87
2021/01/04 07:26:27;;;;;;;4.30;3.77;;;2.00;99.90;;;;;;5128056;28;20224;-88
2021/01/04 07:29:13;;;;;;;4.20;3.80;;;2.00;99.90;;;;;;5125605;27;20197;-88
2021/01/04 07:31:43;;;;;;;4.03;3.67;;;2.10;99.90;;;;;;5122431;28;20218;-87
2021/01/04 07:34:20;;;;;;;4.07;3.77;;;2.20;99.90;;;;;;5131027;27;20202;-87
2021/01/04 07:36:53;;;;;;;4.30;4.00;;;2.20;99.90;;;;;;5126101;27;20198;-86
2021/01/04 07:39:33;;;;;;;4.30;4.00;;;2.20;99.90;;;;;;5121877;28;20732;-86
2021/01/04 07:42:28;;;;;;;4.77;4.37;;;2.30;99.90;;;;;;5126851;27;20269;-84
2021/01/04 07:45:38;;;;;;;4.50;4.20;;;2.30;99.90;;;;;;5102293;28;20209;-84
2021/01/04 07:48:48;;;;;;;4.50;4.20;;;2.30;99.90;;;;;;5123088;27;20197;-83
2021/01/04 07:51:40;;;;;;;4.80;4.40;;;2.30;99.90;;;;;;5120507;28;20624;-85
2021/01/04 07:54:57;;;;;;;4.40;4.10;;;2.20;99.90;;;;;;5120989;27;20278;-85
2021/01/04 07:58:06;;;;;;;4.50;4.13;;;2.10;99.90;;;;;;5108333;28;20225;-84
2021/01/04 08:00:59;;;;;;;4.40;4.00;;;2.10;99.90;;;;;;5070312;27;20676;-83
2021/01/04 08:03:58;;;;;;;5.03;4.53;;;2.10;99.90;;;;;;5124169;27;20226;-87
2021/01/04 08:06:59;;;;;;;25.80;23.10;;;2.10;99.90;;;;;;5110344;28;20222;-90
2021/01/04 08:09:46;;;;;;;6.47;5.97;;;2.10;99.90;;;;;;5101025;28;20281;-85
2021/01/04 08:12:48;;;;;;;5.73;5.10;;;2.20;99.90;;;;;;5119697;27;20786;-84
2021/01/04 08:15:33;;;;;;;4.37;4.07;;;2.20;99.90;;;;;;5118395;27;20217;-85
2021/01/04 08:18:04;;;;;;;4.97;4.57;;;2.10;99.90;;;;;;5125966;27;20728;-84
2021/01/04 08:20:31;;;;;;;5.23;4.83;;;2.10;99.90;;;;;;5120742;27;20194;-85
2021/01/04 08:23:38;;;;;;;5.17;4.77;;;2.10;99.90;;;;;;5113383;27;20642;-85
2021/01/04 08:26:15;;;;;;;5.00;4.70;;;2.10;99.90;;;;;;5112089;28;20198;-85
2021/01/04 08:28:48;;;;;;;4.70;4.40;;;2.10;99.90;;;;;;5124851;27;20634;-84
2021/01/04 08:31:26;;;;;;;4.67;4.27;;;2.10;99.90;;;;;;5123360;27;20712;-84
2021/01/04 08:33:58;;;;;;;4.77;4.37;;;2.10;99.90;;;;;;5118925;27;20241;-85
2021/01/04 08:36:28;;;;;;;4.93;4.40;;;2.20;99.90;;;;;;5120490;27;20200;-85
2021/01/04 08:39:08;;;;;;;4.50;4.20;;;2.20;99.90;;;;;;5117519;27;20251;-86
2021/01/04 08:41:34;;;;;;;4.83;4.43;;;2.20;99.90;;;;;;5113621;27;20198;-85
2021/01/04 08:44:12;;;;;;;4.40;4.00;;;2.10;99.90;;;;;;5120773;27;20331;-85
2021/01/04 08:46:39;;;;;;;4.40;4.10;;;2.10;99.90;;;;;;5124397;27;20196;-85
2021/01/04 08:49:27;;;;;;;4.47;4.07;;;2.10;99.90;;;;;;5122484;27;20230;-86
2021/01/04 08:51:56;;;;;;;5.33;4.63;;;2.20;99.90;;;;;;5120528;27;20246;-85
2021/01/04 08:54:28;;;;;;;4.90;4.40;;;2.10;99.90;;;;;;5126773;27;20285;-85
2021/01/04 08:57:08;;;;;;;4.10;3.80;;;2.10;99.90;;;;;;5120780;27;20233;-85
2021/01/04 08:59:36;;;;;;;4.90;4.50;;;2.10;99.90;;;;;;5121370;27;20286;-86
2021/01/04 09:02:21;;;;;;;4.40;4.07;;;2.10;99.90;;;;;;5123957;27;20257;-85
2021/01/04 09:04:59;;;;;;;4.57;4.17;;;2.10;99.90;;;;;;5111576;28;20215;-85
2021/01/04 09:07:25;;;;;;;4.63;4.23;;;2.10;99.90;;;;;;5111249;28;20194;-86
2021/01/04 09:09:57;;;;;;;4.40;4.10;;;2.20;99.90;;;;;;5111546;28;20237;-86
2021/01/04 09:12:32;;;;;;;4.63;4.27;;;2.20;99.90;;;;;;5118815;27;20214;-86
2021/01/04 09:15:02;;;;;;;5.63;5.23;;;2.20;99.90;;;;;;5125991;27;20662;-85
2021/01/04 09:17:38;;;;;;;5.03;4.63;;;2.20;99.90;;;;;;5122052;27;20226;-85
2021/01/04 09:20:10;;;;;;;5.47;4.97;;;2.20;99.90;;;;;;5121320;27;20265;-85
2021/01/04 09:22:36;;;;;;;5.50;4.90;;;2.20;99.90;;;;;;5118561;27;20651;-85
2021/01/04 09:25:06;;;;;;;5.83;5.00;;;2.20;99.90;;;;;;5114913;27;20238;-85
2021/01/04 09:27:36;;;;;;;6.73;5.50;;;2.20;99.90;;;;;;5123333;27;20230;-83
2021/01/04 09:30:08;;;;;;;27.70;24.90;;;2.20;99.90;;;;;;5124097;27;20190;-84
2021/01/04 09:32:37;;;;;;;7.57;6.97;;;2.30;99.90;;;;;;5126406;27;20222;-86
2021/01/04 09:35:07;;;;;;;6.17;5.67;;;2.30;99.90;;;;;;5118960;27;20668;-85
2021/01/04 09:37:36;;;;;;;5.87;5.37;;;2.30;99.90;;;;;;5116408;27;20408;-85
2021/01/04 09:40:06;;;;;;;5.57;5.13;;;2.30;99.90;;;;;;5121835;27;20236;-84
2021/01/04 09:42:33;;;;;;;5.17;4.73;;;2.30;99.90;;;;;;5117153;27;20281;-84
2021/01/04 09:45:09;;;;;;;5.50;5.10;;;2.30;99.90;;;;;;5123943;27;20234;-84
2021/01/04 09:47:42;;;;;;;5.10;4.70;;;2.30;99.90;;;;;;5111402;28;20943;-84
2021/01/04 09:50:16;;;;;;;5.67;5.17;;;2.30;99.90;;;;;;5110598;28;20692;-85
2021/01/04 09:52:47;;;;;;;4.93;4.53;;;2.30;99.90;;;;;;5110000;28;20300;-84
2021/01/04 09:55:15;;;;;;;5.20;4.80;;;2.30;99.90;;;;;;5109709;28;20191;-84
2021/01/04 09:57:44;;;;;;;5.50;5.00;;;2.30;99.90;;;;;;5110723;28;20286;-85
2021/01/04 10:00:19;;;;;;;5.40;5.00;;;2.30;99.90;;;;;;5109763;28;20206;-86
2021/01/04 10:02:46;;;;;;;5.43;4.93;;;2.30;99.90;;;;;;5110034;28;20667;-84
2021/01/04 10:05:14;;;;;;;5.23;4.83;;;2.30;99.90;;;;;;5110149;28;20225;-85
2021/01/04 10:07:42;;;;;;;5.50;5.10;;;2.30;99.90;;;;;;5109863;28;20242;-84
2021/01/04 10:10:11;;;;;;;5.87;5.37;;;2.30;99.90;;;;;;5109284;28;20281;-84
2021/01/04 10:12:39;;;;;;;5.73;5.23;;;2.30;99.90;;;;;;5109284;28;20672;-84
2021/01/04 10:15:14;;;;;;;7.30;5.63;;;2.40;99.90;;;;;;5109240;28;20637;-84
2021/01/04 10:17:44;;;;;;;6.00;5.50;;;2.30;99.90;;;;;;5113344;27;20198;-84
2021/01/04 10:20:25;;;;;;;5.93;5.30;;;2.30;99.90;;;;;;5124778;27;20209;-86
2021/01/04 10:22:55;;;;;;;5.93;5.33;;;2.40;99.90;;;;;;5109787;28;20202;-84
2021/01/04 10:25:26;;;;;;;5.60;5.10;;;2.40;99.90;;;;;;5109797;28;20198;-84
2021/01/04 10:27:55;;;;;;;6.30;5.70;;;2.40;99.90;;;;;;5109279;28;20187;-84
2021/01/04 10:30:23;;;;;;;5.70;5.20;;;2.40;99.90;;;;;;5109545;28;20208;-84
2021/01/04 10:33:00;;;;;;;5.97;5.40;;;2.40;99.90;;;;;;5109785;28;20577;-85
2021/01/04 10:35:26;;;;;;;6.30;5.80;;;2.40;99.90;;;;;;5109210;28;20358;-83
2021/01/04 10:37:55;;;;;;;7.37;5.60;;;2.40;99.90;;;;;;5108835;28;20764;-84
2021/01/04 10:40:23;;;;;;;33.90;30.37;;;2.30;99.90;;;;;;5110933;27;20224;-81
2021/01/04 10:43:05;;;;;;;17.73;15.93;;;2.30;99.90;;;;;;5115214;27;20202;-86
2021/01/04 10:45:37;;;;;;;9.07;6.80;;;2.40;99.90;;;;;;5116597;27;20202;-84
2021/01/04 10:48:11;;;;;;;7.03;6.30;;;2.40;99.90;;;;;;5123568;27;20208;-83
2021/01/04 10:50:39;;;;;;;9.13;6.27;;;2.40;99.90;;;;;;5117510;27;20684;-86
2021/01/04 10:53:09;;;;;;;6.87;6.07;;;2.40;99.90;;;;;;5120489;27;20233;-84
2021/01/04 10:55:48;;;;;;;7.60;6.90;;;2.40;99.90;;;;;;5129739;27;20248;-83
2021/01/04 10:58:23;;;;;;;6.97;6.27;;;2.40;99.90;;;;;;5121305;27;20651;-85
2021/01/04 11:00:56;;;;;;;7.93;6.50;;;2.40;99.90;;;;;;5120602;27;20580;-85
2021/01/04 11:03:23;;;;;;;6.80;6.17;;;2.40;99.90;;;;;;5114147;27;20204;-85
2021/01/04 11:05:50;;;;;;;7.27;6.00;;;2.40;99.90;;;;;;5117952;27;20202;-84
2021/01/04 11:08:30;;;;;;;7.50;6.10;;;2.40;99.90;;;;;;5119313;28;20292;-85
2021/01/04 11:11:01;;;;;;;7.33;5.93;;;2.30;99.90;;;;;;5124363;27;20656;-85
2021/01/04 11:13:31;;;;;;;6.90;6.23;;;2.40;99.90;;;;;;5112966;27;20222;-85
2021/01/04 11:16:12;;;;;;;8.80;6.63;;;2.30;99.90;;;;;;5109371;28;20226;-83
2021/01/04 11:18:51;;;;;;;8.43;6.20;;;2.40;99.90;;;;;;5111822;28;20277;-84
2021/01/04 11:21:19;;;;;;;6.70;6.07;;;2.40;99.90;;;;;;5117937;28;20277;-85
2021/01/04 11:23:45;;;;;;;8.10;6.53;;;2.40;99.90;;;;;;5117018;27;20650;-85
2021/01/04 11:26:12;;;;;;;7.77;6.20;;;2.40;99.90;;;;;;5114099;28;20250;-85
2021/01/04 11:28:39;;;;;;;9.07;6.43;;;2.40;99.90;;;;;;5117902;27;20286;-85
2021/01/04 11:31:06;;;;;;;9.33;6.87;;;2.40;99.90;;;;;;5115176;28;20202;-87
2021/01/04 11:33:33;;;;;;;7.13;6.43;;;2.40;99.90;;;;;;5124422;28;20226;-85
2021/01/04 11:35:59;;;;;;;7.83;6.50;;;2.40;99.90;;;;;;5123478;27;20197;-87
2021/01/04 11:38:27;;;;;;;9.10;6.23;;;2.40;99.90;;;;;;5121252;27;20207;-85
2021/01/04 11:40:54;;;;;;;8.00;6.53;;;2.30;99.90;;;;;;5119577;27;20201;-87
2021/01/04 11:43:21;;;;;;;9.43;6.83;;;2.30;99.90;;;;;;5120208;28;20198;-85
2021/01/04 11:45:48;;;;;;;8.33;7.53;;;2.30;99.90;;;;;;5117816;27;20690;-85
2021/01/04 11:48:15;;;;;;;8.20;7.07;;;2.30;99.90;;;;;;5125679;27;20625;-86
2021/01/04 11:50:41;;;;;;;8.53;6.93;;;2.30;99.90;;;;;;5131767;27;20292;-85
2021/01/04 11:53:07;;;;;;;7.83;7.07;;;2.30;99.90;;;;;;5116551;27;20226;-86
2021/01/04 11:55:34;;;;;;;9.73;7.67;;;2.30;99.90;;;;;;5118959;27;20312;-86
2021/01/04 11:58:00;;;;;;;10.33;7.90;;;2.40;99.90;;;;;;5125316;27;20727;-85
2021/01/04 12:00:27;;;;;;;10.30;8.20;;;2.30;99.90;;;;;;5120951;27;20664;-84
2021/01/04 12:02:55;;;;;;;10.63;7.80;;;2.30;99.90;;;;;;5118432;27;20284;-85
2021/01/04 12:05:21;;;;;;;9.90;7.27;;;2.30;99.90;;;;;;5122355;27;20636;-85
2021/01/04 12:07:48;;;;;;;9.00;7.53;;;2.30;99.90;;;;;;5125862;27;20659;-85
2021/01/04 12:10:16;;;;;;;10.90;7.73;;;2.30;99.90;;;;;;5124759;27;20610;-86
2021/01/04 12:12:43;;;;;;;8.93;7.73;;;2.30;99.90;;;;;;5116158;27;20232;-85
2021/01/04 12:15:10;;;;;;;9.73;6.97;;;2.30;99.90;;;;;;5124299;27;20338;-86
2021/01/04 12:17:37;;;;;;;13.03;8.30;;;2.30;99.90;;;;;;5115618;27;20248;-85
2021/01/04 12:20:05;;;;;;;9.27;7.47;;;2.20;99.90;;;;;;5122432;27;20292;-86
2021/01/04 12:22:32;;;;;;;11.33;8.20;;;2.30;99.90;;;;;;5128139;27;20672;-86
2021/01/04 12:24:58;;;;;;;7.70;6.90;;;2.30;99.90;;;;;;5113431;27;20220;-85
2021/01/04 12:27:25;;;;;;;10.87;7.90;;;2.20;99.90;;;;;;5118960;27;20202;-89
2021/01/04 12:29:51;;;;;;;31.23;26.93;;;2.20;99.90;;;;;;5112759;28;20198;-83
2021/01/04 12:32:19;;;;;;;21.50;19.20;;;2.30;99.90;;;;;;5118967;27;20240;-85
2021/01/04 12:34:46;;;;;;;9.70;8.30;;;2.30;99.90;;;;;;5120278;27;20284;-86
2021/01/04 12:37:13;;;;;;;10.53;8.43;;;2.30;99.90;;;;;;5113020;28;20216;-86
2021/01/04 12:39:40;;;;;;;11.53;8.07;;;2.20;99.90;;;;;;5113039;28;20749;-86
2021/01/04 12:42:06;;;;;;;10.20;7.97;;;2.20;99.90;;;;;;5112741;28;20202;-85
2021/01/04 12:44:33;;;;;;;13.10;8.23;;;2.20;99.90;;;;;;5128909;27;20252;-85
2021/01/04 12:46:59;;;;;;;11.47;8.13;;;2.20;99.90;;;;;;5118402;27;20258;-85
2021/01/04 12:49:26;;;;;;;11.80;8.70;;;2.20;99.90;;;;;;5112252;28;20209;-85
2021/01/04 12:51:55;;;;;;;11.47;7.90;;;2.20;99.90;;;;;;5111563;28;20233;-85
2021/01/04 12:54:26;;;;;;;12.13;8.50;;;2.20;99.90;;;;;;5117780;27;20229;-86
2021/01/04 12:56:54;;;;;;;11.10;8.30;;;2.20;99.90;;;;;;5113705;27;20242;-86
2021/01/04 12:59:24;;;;;;;9.93;7.70;;;2.20;99.90;;;;;;5132463;27;20576;-86
2021/01/04 13:01:52;;;;;;;12.13;8.43;;;2.20;99.90;;;;;;5112469;28;20716;-86
2021/01/04 13:04:18;;;;;;;10.57;8.37;;;2.20;99.90;;;;;;5112419;28;20270;-87
2021/01/04 13:06:45;;;;;;;13.73;8.80;;;2.20;99.90;;;;;;5112806;28;20206;-86
2021/01/04 13:09:11;;;;;;;12.30;8.63;;;2.20;99.90;;;;;;5115702;27;20202;-86
2021/01/04 13:11:39;;;;;;;12.27;8.90;;;2.30;99.90;;;;;;5115174;27;20292;-86
2021/01/04 13:14:06;;;;;;;11.03;8.30;;;2.30;99.90;;;;;;5112738;28;20208;-88
2021/01/04 13:16:36;;;;;;;16.33;8.80;;;2.20;99.90;;;;;;5128775;27;20208;-85
2021/01/04 13:19:04;;;;;;;10.90;8.83;;;2.30;99.90;;;;;;5133122;27;20254;-84
2021/01/04 13:21:30;;;;;;;12.73;7.90;;;2.30;99.90;;;;;;5126812;27;20663;-86
2021/01/04 13:23:56;;;;;;;10.17;8.57;;;2.30;99.90;;;;;;5118719;27;20205;-86
2021/01/04 13:26:23;;;;;;;10.80;8.40;;;2.20;99.90;;;;;;5115131;27;20196;-86
2021/01/04 13:28:50;;;;;;;11.87;8.07;;;2.20;99.90;;;;;;5123576;27;20221;-86
2021/01/04 13:31:24;;;;;;;9.37;7.57;;;2.20;99.90;;;;;;5117906;27;20205;-87
2021/01/04 13:33:50;;;;;;;12.37;8.60;;;2.20;99.90;;;;;;5116852;27;20218;-86
2021/01/04 13:36:17;;;;;;;13.30;8.80;;;2.20;99.90;;;;;;5126700;27;20290;-86
2021/01/04 13:38:43;;;;;;;10.37;8.13;;;2.20;99.90;;;;;;5115991;27;20204;-86